createdAt,value
2022-12-15T00:00:32.371Z,78.96
2022-12-15T00:03:04.744Z,78.13
2022-12-15T00:05:37.480Z,80.70
2022-12-15T00:08:14.712Z,78.17
2022-12-15T00:10:42.349Z,78.10
2022-12-15T00:13:14.143Z,77.68
2022-12-15T00:15:47.448Z,77.29
2022-12-15T00:18:21.189Z,80.72
2022-12-15T00:20:49.314Z,82.10
2022-12-15T00:23:16.625Z,81.14
2022-12-15T00:25:45.094Z,77.67
2022-12-15T00:28:19.050Z,82.92
2022-12-15T00:30:49.788Z,81.27
2022-12-15T00:33:17.639Z,77.59
2022-12-15T00:35:45.734Z,77.21
2022-12-15T00:38:24.492Z,80.64
2022-12-15T00:41:02.092Z,80.01
2022-12-15T00:43:31.736Z,78.77
2022-12-15T00:46:02.171Z,81.15
2022-12-15T00:48:32.400Z,81.64
2022-12-15T00:53:56.400Z,83.81
2022-12-15T00:56:25.704Z,84.88
2022-12-15T00:58:54.058Z,84.67
2022-12-15T01:04:17.131Z,85.47
2022-12-15T01:09:33.800Z,86.16
2022-12-15T01:12:06.500Z,87.05
2022-12-15T01:14:39.118Z,87.72
2022-12-15T01:17:20.514Z,88.37
2022-12-15T01:19:53.056Z,88.65
2022-12-15T01:22:24.720Z,88.93
2022-12-15T01:24:51.765Z,86.71
2022-12-15T01:27:18.719Z,89.10
2022-12-15T01:29:49.409Z,89.63
2022-12-15T01:32:18.056Z,89.85
2022-12-15T01:34:49.479Z,88.02
2022-12-15T01:40:00.308Z,86.46
2022-12-15T01:42:28.996Z,88.64
2022-12-15T01:45:44.467Z,90.09
2022-12-15T01:48:51.491Z,89.96
2022-12-15T01:51:31.320Z,90.89
2022-12-15T01:54:48.517Z,91.72
2022-12-15T01:57:21.873Z,90.66
2022-12-15T01:59:54.009Z,90.08
2022-12-15T02:02:27.324Z,86.56
2022-12-15T02:04:55.333Z,87.32
2022-12-15T02:07:27.206Z,86.21
2022-12-15T02:09:56.066Z,88.24
2022-12-15T02:12:38.033Z,88.47
2022-12-15T02:15:38.855Z,87.35
2022-12-15T02:19:02.705Z,87.53
2022-12-15T02:22:01.867Z,87.61
2022-12-15T02:25:19.600Z,89.44
2022-12-15T02:28:08.173Z,90.58
2022-12-15T02:30:56.055Z,91.05
2022-12-15T02:33:32.032Z,90.70
2022-12-15T02:36:13.585Z,90.98
2022-12-15T02:38:47.165Z,91.41
2022-12-15T02:41:42.433Z,91.02
2022-12-15T02:44:22.141Z,91.17
2022-12-15T02:47:26.407Z,91.28
2022-12-15T02:50:19.934Z,90.82
2022-12-15T02:53:20.078Z,91.11
2022-12-15T02:56:26.242Z,91.61
2022-12-15T02:59:08.688Z,91.49
2022-12-15T03:01:49.711Z,91.73
2022-12-15T03:04:17.156Z,91.86
2022-12-15T03:06:44.233Z,91.57
2022-12-15T03:09:11.227Z,91.35
2022-12-15T03:11:38.174Z,91.05
2022-12-15T03:14:05.131Z,90.06
2022-12-15T03:16:32.212Z,90.28
2022-12-15T03:19:01.689Z,90.48
2022-12-15T03:21:29.075Z,90.93
2022-12-15T03:23:58.466Z,91.61
2022-12-15T03:26:28.689Z,91.26
2022-12-15T03:28:55.669Z,91.36
2022-12-15T03:31:22.811Z,91.35
2022-12-15T03:33:52.053Z,91.35
2022-12-15T03:36:19.516Z,91.31
2022-12-15T03:38:46.693Z,91.22
2022-12-15T03:41:16.497Z,91.21
2022-12-15T03:43:43.448Z,91.08
2022-12-15T03:46:16.173Z,91.14
2022-12-15T03:48:43.279Z,91.17
2022-12-15T03:51:10.716Z,90.87
2022-12-15T03:53:39.871Z,90.38
2022-12-15T03:56:07.788Z,88.04
2022-12-15T03:58:36.908Z,88.84
2022-12-15T04:01:19.236Z,90.05
2022-12-15T04:03:46.671Z,87.81
2022-12-15T04:06:13.717Z,89.31
2022-12-15T04:08:41.176Z,89.23
2022-12-15T04:11:10.682Z,90.87
2022-12-15T04:14:03.438Z,90.49
2022-12-15T04:16:38.016Z,91.24
2022-12-15T04:19:25.732Z,91.09
2022-12-15T04:21:52.722Z,91.09
2022-12-15T04:24:19.660Z,90.88
2022-12-15T04:26:46.653Z,90.83
2022-12-15T04:29:15.624Z,90.20
2022-12-15T04:31:45.344Z,90.61
2022-12-15T04:34:18.017Z,90.69
2022-12-15T04:36:46.262Z,90.64
2022-12-15T04:39:19.056Z,91.15
2022-12-15T04:41:45.817Z,90.79
2022-12-15T04:44:12.905Z,90.92
2022-12-15T04:46:42.555Z,90.45
2022-12-15T04:49:09.581Z,90.34
2022-12-15T04:51:38.034Z,90.90
2022-12-15T04:54:10.546Z,91.28
2022-12-15T04:56:37.636Z,91.12
2022-12-15T04:59:10.391Z,90.99
2022-12-15T05:01:43.332Z,90.67
2022-12-15T05:04:16.262Z,91.06
2022-12-15T05:06:43.288Z,91.23
2022-12-15T05:09:10.231Z,90.98
2022-12-15T05:11:40.063Z,90.72
2022-12-15T05:14:07.228Z,90.48
2022-12-15T05:16:40.292Z,90.28
2022-12-15T05:19:07.367Z,89.76
2022-12-15T05:21:34.309Z,89.79
2022-12-15T05:24:07.112Z,89.49
2022-12-15T05:26:34.128Z,89.44
2022-12-15T05:29:01.108Z,89.45
2022-12-15T05:31:30.847Z,89.23
2022-12-15T05:34:02.809Z,88.73
2022-12-15T05:36:33.500Z,88.67
2022-12-15T05:39:00.547Z,88.64
2022-12-15T05:41:30.342Z,87.55
2022-12-15T05:43:57.269Z,87.57
2022-12-15T05:46:26.558Z,87.68
2022-12-15T05:48:56.757Z,86.54
2022-12-15T05:51:23.748Z,83.94
2022-12-15T05:53:50.763Z,82.60
2022-12-15T05:56:17.779Z,86.60
2022-12-15T05:58:45.640Z,84.41
2022-12-15T06:01:18.218Z,80.11
2022-12-15T06:03:46.303Z,78.70
2022-12-15T06:06:13.619Z,79.09
2022-12-15T06:08:41.321Z,81.48
2022-12-15T06:11:12.835Z,83.85
2022-12-15T06:13:40.045Z,85.91
2022-12-15T06:16:17.556Z,88.47
2022-12-15T06:18:49.883Z,88.55
2022-12-15T06:21:21.524Z,89.12
2022-12-15T06:23:50.837Z,88.66
2022-12-15T06:26:34.047Z,89.00
2022-12-15T06:29:04.265Z,88.77
2022-12-15T06:31:34.250Z,89.14
2022-12-15T06:34:03.846Z,89.30
2022-12-15T06:36:31.152Z,88.45
2022-12-15T06:39:07.863Z,88.24
2022-12-15T06:41:34.853Z,88.64
2022-12-15T06:44:07.693Z,88.19
2022-12-15T06:46:34.920Z,88.35
2022-12-15T06:49:04.166Z,88.23
2022-12-15T06:51:31.379Z,88.45
2022-12-15T06:53:58.867Z,87.67
2022-12-15T06:56:33.559Z,86.68
2022-12-15T06:59:01.332Z,86.87
2022-12-15T07:01:28.372Z,86.55
2022-12-15T07:04:01.659Z,86.71
2022-12-15T07:06:30.180Z,86.19
2022-12-15T07:08:57.199Z,84.35
2022-12-15T07:11:24.252Z,85.68
2022-12-15T07:13:56.929Z,83.70
2022-12-15T07:16:30.508Z,82.38
2022-12-15T07:18:59.617Z,81.49
2022-12-15T07:21:32.476Z,80.45
2022-12-15T07:24:00.528Z,76.68
2022-12-15T07:26:28.765Z,77.99
2022-12-15T07:29:01.728Z,85.04
2022-12-15T07:31:30.989Z,85.65
2022-12-15T07:34:00.709Z,79.91
2022-12-15T07:36:28.143Z,82.23
2022-12-15T07:38:59.474Z,82.48
2022-12-15T07:41:29.251Z,85.20
2022-12-15T07:43:58.751Z,85.41
2022-12-15T07:46:27.932Z,86.05
2022-12-15T07:48:57.265Z,85.03
2022-12-15T07:51:25.406Z,86.66
2022-12-15T07:53:58.202Z,85.32
2022-12-15T07:56:33.211Z,81.01
2022-12-15T07:59:09.830Z,79.59
2022-12-15T08:01:38.407Z,77.85
2022-12-15T08:04:05.863Z,81.22
2022-12-15T08:06:32.655Z,79.64
2022-12-15T08:08:59.393Z,80.08
2022-12-15T08:11:26.463Z,82.19
2022-12-15T08:14:13.490Z,79.64
2022-12-15T08:16:40.381Z,78.62
2022-12-15T08:19:13.177Z,80.12
2022-12-15T08:21:40.987Z,80.45
2022-12-15T08:24:08.704Z,79.76
2022-12-15T08:26:38.366Z,77.15
2022-12-15T08:29:40.719Z,74.88
2022-12-15T08:31:56.261Z,74.07
2022-12-15T08:34:23.226Z,73.13
2022-12-15T08:36:53.022Z,76.73
2022-12-15T08:39:20.441Z,74.83
2022-12-15T08:41:47.159Z,77.69
2022-12-15T08:44:20.272Z,80.70
2022-12-15T08:46:49.526Z,81.18
2022-12-15T08:49:21.859Z,82.69
2022-12-15T08:51:50.016Z,83.38
2022-12-15T08:54:22.559Z,82.53
2022-12-15T08:56:52.162Z,78.97
2022-12-15T08:59:19.731Z,78.11
2022-12-15T09:01:46.941Z,81.03
2022-12-15T09:04:14.113Z,83.81
2022-12-15T09:06:44.512Z,83.53
2022-12-15T09:09:17.294Z,82.67
2022-12-15T09:11:44.265Z,78.78
2022-12-15T09:14:14.013Z,76.36
2022-12-15T09:16:43.539Z,72.69
2022-12-15T09:19:13.229Z,72.00
2022-12-15T09:21:46.129Z,76.41
2022-12-15T09:24:28.898Z,75.89
2022-12-15T09:27:01.420Z,72.50
2022-12-15T09:29:31.578Z,74.24
2022-12-15T09:32:01.479Z,73.78
2022-12-15T09:34:28.741Z,75.82
2022-12-15T09:37:01.451Z,76.25
2022-12-15T09:39:34.152Z,75.55
2022-12-15T09:42:02.571Z,75.12
2022-12-15T09:45:13.909Z,78.25
2022-12-15T09:48:01.163Z,80.54
2022-12-15T09:50:35.453Z,80.52
2022-12-15T09:53:36.737Z,80.12
2022-12-15T09:56:04.902Z,80.99
2022-12-15T09:58:58.491Z,81.51
2022-12-15T10:01:38.838Z,81.46
2022-12-15T10:04:13.120Z,82.55
2022-12-15T10:06:50.594Z,82.62
2022-12-15T10:09:25.530Z,82.94
2022-12-15T10:12:08.806Z,83.61
2022-12-15T10:14:36.757Z,84.04
2022-12-15T10:17:29.143Z,83.74
2022-12-15T10:20:13.195Z,83.67
2022-12-15T10:22:41.306Z,83.81
2022-12-15T10:25:37.244Z,82.95
2022-12-15T10:28:42.332Z,82.98
2022-12-15T10:31:47.181Z,82.51
2022-12-15T10:34:29.808Z,78.83
2022-12-15T10:37:17.619Z,77.29
2022-12-15T10:40:03.640Z,77.59
2022-12-15T10:42:30.777Z,77.89
2022-12-15T10:44:58.370Z,76.96
2022-12-15T10:47:31.520Z,74.98
2022-12-15T10:50:24.728Z,73.14
2022-12-15T10:52:52.349Z,72.09
2022-12-15T10:55:39.982Z,71.06
2022-12-15T10:58:21.992Z,74.50
2022-12-15T11:01:09.328Z,75.34
2022-12-15T11:03:40.166Z,77.53
2022-12-15T11:06:16.181Z,79.08
2022-12-15T11:08:44.279Z,80.68
2022-12-15T11:11:31.940Z,78.71
2022-12-15T11:14:16.310Z,82.07
2022-12-15T11:16:51.176Z,82.12
2022-12-15T11:20:01.957Z,82.75
2022-12-15T11:22:53.388Z,83.72
2022-12-15T11:25:54.146Z,84.42
2022-12-15T11:28:46.781Z,84.65
2022-12-15T11:31:28.182Z,84.25
2022-12-15T11:45:14.278Z,78.02
2022-12-15T11:47:49.822Z,76.64
2022-12-15T11:50:41.198Z,75.86
2022-12-15T11:53:36.566Z,74.53
2022-12-15T11:56:14.304Z,71.28
2022-12-15T11:59:09.737Z,71.10
2022-12-15T12:02:07.374Z,73.05
2022-12-15T12:04:56.071Z,70.87
2022-12-15T12:07:46.506Z,69.94
2022-12-15T12:11:03.283Z,71.14
2022-12-15T12:13:51.887Z,71.92
2022-12-15T12:17:06.033Z,75.39
2022-12-15T12:19:41.555Z,74.79
2022-12-15T12:22:26.117Z,73.89
2022-12-15T12:25:12.685Z,71.54
2022-12-15T12:27:50.380Z,70.53
2022-12-15T12:30:21.915Z,78.16
2022-12-15T12:33:23.199Z,78.86
2022-12-15T12:35:54.336Z,76.94
2022-12-15T12:38:36.082Z,76.46
2022-12-15T12:41:08.884Z,76.77
2022-12-15T12:44:02.969Z,77.45
2022-12-15T12:46:50.587Z,77.13
2022-12-15T12:49:30.091Z,78.12
2022-12-15T12:52:02.022Z,76.18
2022-12-15T12:54:55.065Z,74.35
2022-12-15T12:57:42.910Z,74.54
2022-12-15T13:00:24.829Z,77.73
2022-12-15T13:03:18.175Z,77.70
2022-12-15T13:05:52.878Z,76.23
2022-12-15T13:08:45.050Z,76.57
2022-12-15T13:11:47.214Z,78.66
2022-12-15T13:14:25.931Z,76.50
2022-12-15T13:17:24.961Z,75.67
2022-12-15T13:20:35.761Z,77.83
2022-12-15T13:23:21.038Z,78.80
2022-12-15T13:26:08.843Z,78.02
2022-12-15T13:28:44.537Z,80.08
2022-12-15T13:31:30.137Z,80.44
2022-12-15T13:34:01.262Z,79.34
2022-12-15T13:36:52.524Z,78.82
2022-12-15T13:39:30.081Z,77.37
2022-12-15T13:42:33.334Z,77.19
2022-12-15T13:45:30.444Z,78.22
2022-12-15T13:48:00.419Z,79.20
2022-12-15T13:51:06.171Z,80.54
2022-12-15T13:53:51.624Z,79.47
2022-12-15T13:56:43.398Z,79.75
2022-12-15T13:59:45.630Z,79.71
2022-12-15T14:02:35.988Z,79.25
2022-12-15T14:05:19.563Z,78.65
2022-12-15T14:08:15.515Z,77.51
2022-12-15T14:10:51.016Z,77.58
2022-12-15T14:13:34.771Z,76.97
2022-12-15T14:16:15.450Z,75.74
2022-12-15T14:18:42.513Z,76.88
2022-12-15T14:21:27.508Z,75.87
2022-12-15T14:26:47.433Z,76.68
2022-12-15T14:29:17.816Z,74.14
2022-12-15T14:31:54.218Z,79.57
2022-12-15T14:34:30.713Z,75.21
2022-12-15T14:36:59.540Z,76.16
2022-12-15T14:39:30.751Z,75.41
2022-12-15T14:42:04.082Z,73.44
2022-12-15T14:44:48.357Z,73.88
2022-12-15T14:47:40.047Z,75.06
2022-12-15T14:50:07.919Z,77.53
2022-12-15T14:52:41.706Z,75.83
2022-12-15T14:55:40.664Z,74.19
2022-12-15T14:58:37.847Z,75.72
2022-12-15T15:01:24.135Z,76.38
2022-12-15T15:04:04.982Z,75.53
2022-12-15T15:06:54.838Z,77.66
2022-12-15T15:09:47.983Z,79.74
2022-12-15T15:12:22.566Z,81.97
2022-12-15T15:15:06.657Z,80.73
2022-12-15T15:18:14.985Z,81.32
2022-12-15T15:20:55.270Z,80.89
2022-12-15T15:23:28.007Z,79.98
2022-12-15T15:26:07.251Z,81.50
2022-12-15T15:28:43.919Z,81.92
2022-12-15T15:31:41.798Z,82.72
2022-12-15T15:34:16.756Z,83.82
2022-12-15T15:36:46.277Z,83.49
2022-12-15T15:39:14.671Z,85.72
2022-12-15T15:41:44.211Z,85.58
2022-12-15T15:44:14.992Z,85.50
2022-12-15T15:46:47.915Z,85.63
2022-12-15T15:49:20.867Z,84.70
2022-12-15T15:51:57.134Z,84.19
2022-12-15T15:54:24.982Z,81.04
2022-12-15T15:56:57.771Z,83.11
2022-12-15T15:59:24.879Z,84.13
2022-12-15T16:01:55.967Z,82.56
2022-12-15T16:04:23.964Z,82.78
2022-12-15T16:06:56.843Z,83.43
2022-12-15T16:09:29.822Z,83.78
2022-12-15T16:11:57.626Z,84.21
2022-12-15T16:14:27.479Z,83.29
2022-12-15T16:16:54.966Z,85.05
2022-12-15T16:19:24.580Z,84.84
2022-12-15T16:21:51.858Z,85.55
2022-12-15T16:24:18.836Z,86.09
2022-12-15T16:26:49.322Z,85.87
2022-12-15T16:29:21.931Z,86.04
2022-12-15T16:31:49.185Z,85.96
2022-12-15T16:34:21.966Z,85.96
2022-12-15T16:36:48.912Z,86.54
2022-12-15T16:39:31.134Z,86.06
2022-12-15T16:41:58.817Z,86.23
2022-12-15T16:44:32.067Z,86.14
2022-12-15T16:47:02.659Z,85.61
2022-12-15T16:49:39.629Z,85.92
2022-12-15T16:52:19.022Z,85.48
2022-12-15T16:54:48.853Z,85.78
2022-12-15T16:57:21.939Z,85.32
2022-12-15T16:59:49.244Z,85.56
2022-12-15T17:02:42.127Z,85.49
2022-12-15T17:05:11.254Z,86.09
2022-12-15T17:07:45.719Z,85.41
2022-12-15T17:10:23.857Z,85.69
2022-12-15T17:12:51.258Z,85.55
2022-12-15T17:15:23.502Z,85.42
2022-12-15T17:17:50.805Z,86.37
2022-12-15T17:20:31.622Z,86.74
2022-12-15T17:23:19.534Z,86.01
2022-12-15T17:26:21.121Z,85.59
2022-12-15T17:28:40.935Z,85.38
2022-12-15T17:31:17.918Z,85.47
2022-12-15T17:33:44.953Z,86.30
2022-12-15T17:36:32.771Z,86.09
2022-12-15T17:39:00.399Z,85.82
2022-12-15T17:41:58.636Z,85.76
2022-12-15T17:44:38.948Z,86.03
2022-12-15T17:47:07.591Z,84.94
2022-12-15T17:49:38.008Z,86.23
2022-12-15T17:52:28.532Z,86.17
2022-12-15T17:54:55.550Z,85.71
2022-12-15T17:57:25.047Z,86.35
2022-12-15T18:00:01.376Z,86.11
2022-12-15T18:02:28.597Z,86.42
2022-12-15T18:04:56.311Z,86.31
2022-12-15T18:07:23.835Z,86.59
2022-12-15T18:09:51.249Z,86.90
2022-12-15T18:12:26.373Z,86.76
2022-12-15T18:14:55.777Z,85.62
2022-12-15T18:17:22.670Z,86.42
2022-12-15T18:19:54.275Z,85.95
2022-12-15T18:22:23.043Z,85.92
2022-12-15T18:24:53.029Z,85.74
2022-12-15T18:27:27.589Z,85.68
2022-12-15T18:29:55.149Z,85.34
2022-12-15T18:32:28.046Z,85.51
2022-12-15T18:35:29.436Z,85.65
2022-12-15T18:37:56.611Z,85.19
2022-12-15T18:40:26.545Z,84.81
2022-12-15T18:42:53.671Z,85.22
2022-12-15T18:45:28.252Z,85.32
2022-12-15T18:48:01.383Z,86.18
2022-12-15T18:50:28.334Z,85.90
2022-12-15T18:52:59.502Z,85.67
2022-12-15T18:55:26.962Z,85.00
2022-12-15T18:57:58.707Z,83.91
2022-12-15T19:00:30.849Z,84.36
2022-12-15T19:03:00.019Z,84.52
2022-12-15T19:05:27.951Z,83.69
2022-12-15T19:08:19.654Z,83.29
2022-12-15T19:11:12.752Z,81.65
2022-12-15T19:13:39.820Z,81.28
2022-12-15T19:16:10.157Z,81.23
2022-12-15T19:18:39.663Z,80.36
2022-12-15T19:21:32.262Z,79.65
2022-12-15T19:23:59.894Z,77.94
2022-12-15T19:26:29.456Z,79.00
2022-12-15T19:28:57.449Z,76.07
2022-12-15T19:31:30.362Z,74.22
2022-12-15T19:33:58.337Z,72.76
2022-12-15T19:36:31.093Z,75.92
2022-12-15T19:39:00.626Z,74.96
2022-12-15T19:41:34.662Z,73.33
2022-12-15T19:44:01.723Z,73.59
2022-12-15T19:46:34.446Z,72.18
2022-12-15T19:49:03.590Z,71.86
2022-12-15T19:51:32.533Z,72.19
2022-12-15T19:54:19.641Z,74.07
2022-12-15T19:56:52.635Z,77.73
2022-12-15T19:59:26.453Z,74.35
2022-12-15T20:02:00.611Z,74.30
2022-12-15T20:04:30.643Z,76.48
2022-12-15T20:06:58.601Z,78.40
2022-12-15T20:09:26.639Z,76.43
2022-12-15T20:11:53.762Z,74.66
2022-12-15T20:14:26.558Z,77.33
2022-12-15T20:16:53.601Z,75.51
2022-12-15T20:19:20.606Z,77.80
2022-12-15T20:25:39.659Z,78.41
2022-12-15T20:28:18.829Z,77.61
2022-12-15T20:30:46.051Z,75.75
2022-12-15T20:33:13.334Z,72.76
2022-12-15T20:35:40.270Z,73.93
2022-12-15T20:38:30.925Z,80.53
2022-12-15T20:40:58.443Z,83.12
2022-12-15T20:43:25.964Z,84.85
2022-12-15T20:46:25.751Z,83.02
2022-12-15T20:48:58.618Z,82.49
2022-12-15T20:51:31.170Z,82.35
2022-12-15T20:54:07.023Z,78.90
2022-12-15T20:56:34.044Z,82.45
2022-12-15T20:59:06.065Z,81.15
2022-12-15T21:01:34.687Z,81.37
2022-12-15T21:04:03.880Z,80.42
2022-12-15T21:06:36.948Z,79.75
2022-12-15T21:09:10.576Z,82.49
2022-12-15T21:11:40.093Z,79.42
2022-12-15T21:14:10.487Z,77.71
2022-12-15T21:16:37.507Z,75.90
2022-12-15T21:19:20.355Z,78.70
2022-12-15T21:21:55.395Z,75.52
2022-12-15T21:24:30.832Z,73.22
2022-12-15T21:27:06.203Z,72.33
2022-12-15T21:29:33.234Z,72.43
2022-12-15T21:32:00.558Z,71.18
2022-12-15T21:34:33.395Z,72.02
2022-12-15T21:37:00.449Z,72.39
2022-12-15T21:39:33.952Z,72.47
2022-12-15T21:42:22.128Z,71.05
2022-12-15T21:44:52.342Z,71.48
2022-12-15T21:47:27.213Z,77.42
2022-12-15T21:52:41.246Z,72.19
2022-12-15T21:55:18.359Z,71.64
2022-12-15T21:57:45.487Z,73.58
2022-12-15T22:00:15.056Z,77.50
2022-12-15T22:02:42.443Z,73.45
2022-12-15T22:05:25.030Z,73.09
2022-12-15T22:07:58.054Z,74.72
2022-12-15T22:10:25.193Z,74.26
2022-12-15T22:13:00.825Z,75.75
2022-12-15T22:15:28.777Z,74.36
2022-12-15T22:17:59.346Z,75.10
2022-12-15T22:20:26.292Z,72.93
2022-12-15T22:22:56.108Z,71.61
2022-12-15T22:25:26.244Z,71.08
2022-12-15T22:27:54.690Z,73.03
2022-12-15T22:30:30.987Z,74.62
2022-12-15T22:33:00.635Z,74.17
2022-12-15T22:35:46.363Z,73.09
2022-12-15T22:38:13.341Z,73.67
2022-12-15T22:40:46.189Z,73.00
2022-12-15T22:43:43.348Z,71.06
2022-12-15T22:46:12.112Z,70.24
2022-12-15T22:48:45.874Z,70.90
2022-12-15T22:51:15.987Z,70.56
2022-12-15T22:53:44.169Z,70.12
2022-12-15T22:56:34.643Z,69.94
2022-12-15T22:59:03.600Z,69.72
2022-12-15T23:01:30.597Z,69.68
2022-12-15T23:04:04.022Z,75.34
2022-12-15T23:06:36.810Z,76.57
2022-12-15T23:09:04.305Z,80.95
2022-12-15T23:11:34.005Z,78.65
2022-12-15T23:14:01.316Z,80.33
2022-12-15T23:16:34.304Z,78.71
2022-12-15T23:19:07.682Z,77.61
2022-12-15T23:21:35.487Z,76.65
2022-12-15T23:24:02.490Z,77.11
2022-12-15T23:26:34.248Z,75.41
2022-12-15T23:29:07.096Z,73.99
2022-12-15T23:31:39.973Z,72.60
2022-12-15T23:34:07.060Z,71.46
2022-12-15T23:36:39.782Z,72.50
2022-12-15T23:39:09.656Z,70.77
2022-12-15T23:41:36.700Z,72.19
2022-12-15T23:44:06.949Z,77.76
2022-12-15T23:46:34.047Z,83.48
2022-12-15T23:49:06.957Z,83.53
2022-12-15T23:51:39.776Z,84.76
2022-12-15T23:54:11.801Z,83.50
2022-12-15T23:56:39.404Z,81.73
2022-12-15T23:59:06.537Z,82.36
